KSDY/SDY METAR and TAF weather

Enter ICAO airport designator
Station Type Date Time Source
KSDY METAR 2022/06/30 11:56 UTC NOAA

KSDY 301156Z AUTO 30009KT 10SM CLR 13/12 A2998 RMK AO2 SLP148 T01330117 10178 20111 53020


Station Type Date Time Source
KSDY Decoded METAR 2022/06/30 11:56 UTC NOAA

Sidney-Richland, MT, United States (KSDY) 47-42N 104-12W
Jun 30, 2022 - 07:56 AM EDT / 2022.06.30 1156 UTC
Wind: from the WNW (300 degrees) at 10 MPH (9 KT):0
Visibility: 10 mile(s):0
Sky conditions: clear
Temperature: 55.9 F (13.3 C)
Dew Point: 53.1 F (11.7 C)
Relative Humidity: 90%
Pressure (altimeter): 29.98 in. Hg (1015 hPa)
Pressure tendency: 0.06 inches (2.0 hPa) higher than three hours ago
ob: KSDY 301156Z AUTO 30009KT 10SM CLR 13/12 A2998 RMK AO2 SLP148 T01330117 10178 20111 53020
cycle: 12

Station Type Date Time Source
KSDY TAF 2022/06/30 12:22 UTC NOAA

TAF KSDY 301120Z 3012/0112 30009KT P6SM FEW200
FM301800 31015KT P6SM FEW080
FM010200 33007KT P6SM FEW070

Example: see airport list